Time;durP1;ratioP1;P1;durP2;ratioP2;P2;SDS_P1;SDS_P2;PMS_P1;PMS_P2;Temp;Humidity;BMP_temperature;BMP_pressure;BME280_temperature;BME280_humidity;BME280_pressure;Samples;Min_cycle;Max_cycle;Signal;HPM_P1;HPM_P2
2023/08/17 00:00:12;;;;;;;12.50;11.40;;;;;;;;;;110127;268;42784;-48
2023/08/17 00:03:07;;;;;;;11.90;10.90;;;;;;;;;;110240;268;42570;-45
2023/08/17 00:05:44;;;;;;;12.20;11.10;;;;;;;;;;110227;269;40635;-45
2023/08/17 00:08:19;;;;;;;12.70;11.50;;;;;;;;;;110172;269;39731;-44
2023/08/17 00:10:57;;;;;;;13.10;11.90;;;;;;;;;;110165;268;43865;-44
2023/08/17 00:13:30;;;;;;;12.90;11.60;;;;;;;;;;110178;265;42019;-40
2023/08/17 00:16:06;;;;;;;13.30;12.00;;;;;;;;;;110168;268;38785;-43
2023/08/17 00:18:45;;;;;;;12.30;11.10;;;;;;;;;;110187;268;39481;-39
2023/08/17 00:21:21;;;;;;;12.80;11.60;;;;;;;;;;110123;268;42879;-43
2023/08/17 00:23:58;;;;;;;12.70;11.60;;;;;;;;;;110079;268;43520;-46
2023/08/17 00:26:34;;;;;;;11.90;10.80;;;;;;;;;;110114;269;38830;-48
2023/08/17 00:29:10;;;;;;;12.20;11.10;;;;;;;;;;110161;269;39654;-48
2023/08/17 00:31:44;;;;;;;12.40;11.30;;;;;;;;;;110102;269;43878;-48
2023/08/17 00:34:22;;;;;;;12.20;11.10;;;;;;;;;;110155;269;41874;-48
2023/08/17 00:36:58;;;;;;;12.30;11.20;;;;;;;;;;110146;269;38447;-48
2023/08/17 00:39:33;;;;;;;12.50;11.40;;;;;;;;;;110103;269;39565;-48
2023/08/17 00:42:12;;;;;;;12.90;11.70;;;;;;;;;;110055;269;42737;-47
2023/08/17 00:44:46;;;;;;;12.50;11.40;;;;;;;;;;110078;269;42097;-48
2023/08/17 00:47:20;;;;;;;12.60;11.50;;;;;;;;;;110087;269;38578;-49
2023/08/17 00:49:56;;;;;;;12.80;11.70;;;;;;;;;;110101;269;39561;-48
2023/08/17 00:52:30;;;;;;;13.20;11.90;;;;;;;;;;110168;269;48834;-46
2023/08/17 00:55:09;;;;;;;12.70;11.50;;;;;;;;;;110070;269;42419;-48
2023/08/17 00:57:46;;;;;;;12.70;11.50;;;;;;;;;;110092;269;40012;-48
2023/08/17 01:00:26;;;;;;;13.30;12.00;;;;;;;;;;110046;269;39702;-48
2023/08/17 01:03:04;;;;;;;13.30;12.00;;;;;;;;;;110087;269;48800;-49
2023/08/17 01:05:42;;;;;;;12.90;11.80;;;;;;;;;;110091;269;41924;-49
2023/08/17 01:08:18;;;;;;;13.00;11.80;;;;;;;;;;110019;269;39896;-48
2023/08/17 01:11:03;;;;;;;12.60;11.50;;;;;;;;;;110032;269;39835;-48
2023/08/17 01:13:43;;;;;;;12.40;11.20;;;;;;;;;;110071;269;42492;-49
2023/08/17 01:16:25;;;;;;;12.50;11.40;;;;;;;;;;110114;269;42011;-45
2023/08/17 01:19:00;;;;;;;12.70;11.60;;;;;;;;;;109433;269;891252;-48
2023/08/17 01:21:45;;;;;;;13.00;11.70;;;;;;;;;;110052;269;39313;-47
2023/08/17 01:24:22;;;;;;;13.30;12.10;;;;;;;;;;110093;269;42762;-48
2023/08/17 01:26:58;;;;;;;13.20;12.00;;;;;;;;;;110063;269;42320;-48
2023/08/17 01:29:33;;;;;;;13.40;12.20;;;;;;;;;;110096;269;38608;-47
2023/08/17 01:32:17;;;;;;;13.50;12.20;;;;;;;;;;110070;269;39375;-48
2023/08/17 01:35:00;;;;;;;13.30;12.00;;;;;;;;;;110117;269;42703;-48
2023/08/17 01:37:40;;;;;;;13.40;12.30;;;;;;;;;;110101;269;42083;-45
2023/08/17 01:40:18;;;;;;;13.20;12.10;;;;;;;;;;110100;269;38481;-48
2023/08/17 01:42:53;;;;;;;13.40;12.30;;;;;;;;;;110079;269;39545;-48
2023/08/17 01:45:30;;;;;;;13.70;12.40;;;;;;;;;;110086;269;42733;-48
2023/08/17 01:48:08;;;;;;;13.70;12.50;;;;;;;;;;110106;269;42119;-48
2023/08/17 01:50:43;;;;;;;13.90;12.60;;;;;;;;;;110084;269;38772;-48
2023/08/17 01:53:17;;;;;;;13.70;12.50;;;;;;;;;;110044;269;39284;-48
2023/08/17 01:55:52;;;;;;;13.80;12.60;;;;;;;;;;110127;269;42437;-48
2023/08/17 01:58:29;;;;;;;13.60;12.30;;;;;;;;;;110062;269;41891;-48
2023/08/17 02:01:07;;;;;;;13.90;12.70;;;;;;;;;;110103;269;38675;-48
2023/08/17 02:03:45;;;;;;;13.80;12.60;;;;;;;;;;109927;269;175402;-48
2023/08/17 02:06:25;;;;;;;13.90;12.60;;;;;;;;;;110084;269;43043;-48
2023/08/17 02:09:04;;;;;;;14.40;13.10;;;;;;;;;;109989;269;195131;-48
2023/08/17 02:11:41;;;;;;;14.50;13.20;;;;;;;;;;110080;269;39770;-48
2023/08/17 02:14:16;;;;;;;14.10;12.90;;;;;;;;;;110092;269;46584;-48
2023/08/17 02:16:51;;;;;;;13.90;12.70;;;;;;;;;;110105;269;42976;-46
2023/08/17 02:19:29;;;;;;;14.50;13.30;;;;;;;;;;110092;269;42448;-48
2023/08/17 02:22:08;;;;;;;14.70;13.50;;;;;;;;;;110102;269;38674;-48
2023/08/17 02:24:48;;;;;;;14.60;13.30;;;;;;;;;;110036;269;45580;-48
2023/08/17 02:27:22;;;;;;;15.30;13.90;;;;;;;;;;110059;269;42724;-48
2023/08/17 02:29:57;;;;;;;15.80;14.50;;;;;;;;;;110069;269;42098;-48
2023/08/17 02:32:32;;;;;;;15.20;13.90;;;;;;;;;;109948;269;175773;-48
2023/08/17 02:35:10;;;;;;;15.30;14.00;;;;;;;;;;110072;269;47138;-48
2023/08/17 02:37:46;;;;;;;14.80;13.60;;;;;;;;;;110067;269;42533;-48
2023/08/17 02:40:26;;;;;;;15.80;14.50;;;;;;;;;;110099;269;42280;-47
2023/08/17 02:43:01;;;;;;;15.50;14.20;;;;;;;;;;110040;269;38880;-48
2023/08/17 02:45:40;;;;;;;15.00;13.70;;;;;;;;;;110047;269;39766;-45
2023/08/17 02:48:16;;;;;;;15.50;14.10;;;;;;;;;;110109;269;43925;-48
2023/08/17 02:50:55;;;;;;;16.50;15.00;;;;;;;;;;110034;269;42076;-48
2023/08/17 02:53:34;;;;;;;16.00;14.50;;;;;;;;;;110078;269;38664;-48
2023/08/17 02:56:11;;;;;;;16.30;14.90;;;;;;;;;;110062;269;39794;-48
2023/08/17 02:58:45;;;;;;;15.90;14.40;;;;;;;;;;110061;269;43108;-48
2023/08/17 03:01:19;;;;;;;16.10;14.60;;;;;;;;;;110099;269;42436;-48
2023/08/17 03:03:57;;;;;;;15.70;14.40;;;;;;;;;;110060;265;38858;-47
2023/08/17 03:06:36;;;;;;;15.40;14.00;;;;;;;;;;110143;269;40624;-48
2023/08/17 03:09:12;;;;;;;15.60;14.30;;;;;;;;;;109997;269;175428;-48
2023/08/17 03:11:49;;;;;;;16.60;15.00;;;;;;;;;;110116;269;42045;-48
2023/08/17 03:14:27;;;;;;;17.10;15.60;;;;;;;;;;110084;269;38821;-48
2023/08/17 03:17:05;;;;;;;16.50;15.10;;;;;;;;;;109994;269;192964;-47
2023/08/17 03:19:41;;;;;;;17.00;15.30;;;;;;;;;;110138;269;42737;-47
2023/08/17 03:22:16;;;;;;;16.40;14.80;;;;;;;;;;110115;269;41861;-48
2023/08/17 03:24:53;;;;;;;16.10;14.70;;;;;;;;;;109936;267;38779;-47
2023/08/17 03:27:32;;;;;;;15.40;13.90;;;;;;;;;;110163;269;39659;-48
2023/08/17 03:30:09;;;;;;;15.60;14.20;;;;;;;;;;110123;269;42934;-47
2023/08/17 03:32:45;;;;;;;16.20;14.70;;;;;;;;;;110129;269;42192;-47
2023/08/17 03:35:22;;;;;;;16.40;14.90;;;;;;;;;;110080;269;38817;-48
2023/08/17 03:38:01;;;;;;;16.20;14.80;;;;;;;;;;110126;269;39510;-48
2023/08/17 03:40:39;;;;;;;16.30;14.70;;;;;;;;;;110127;269;42852;-47
2023/08/17 03:43:16;;;;;;;17.50;15.90;;;;;;;;;;110157;269;42225;-47
2023/08/17 03:45:52;;;;;;;17.40;15.90;;;;;;;;;;110105;269;38807;-47
2023/08/17 03:48:27;;;;;;;16.80;15.30;;;;;;;;;;110128;269;40625;-48
2023/08/17 03:51:06;;;;;;;17.30;15.70;;;;;;;;;;110103;269;42458;-48
2023/08/17 03:53:46;;;;;;;17.80;16.10;;;;;;;;;;110122;269;41826;-47
2023/08/17 03:56:22;;;;;;;17.60;16.00;;;;;;;;;;109915;269;38649;-47
2023/08/17 03:58:57;;;;;;;17.20;15.70;;;;;;;;;;110118;269;39545;-47
2023/08/17 04:01:35;;;;;;;16.90;15.50;;;;;;;;;;110123;269;42418;-47
2023/08/17 04:04:11;;;;;;;17.40;15.70;;;;;;;;;;110150;269;42122;-47
2023/08/17 04:06:49;;;;;;;16.70;15.20;;;;;;;;;;110035;269;44481;-46
2023/08/17 04:09:23;;;;;;;16.70;15.30;;;;;;;;;;110098;269;39677;-48
2023/08/17 04:11:59;;;;;;;16.90;15.40;;;;;;;;;;110076;269;42726;-47
2023/08/17 04:14:33;;;;;;;17.00;15.30;;;;;;;;;;110095;269;42292;-47
2023/08/17 04:17:13;;;;;;;17.00;15.50;;;;;;;;;;110054;269;38486;-47
2023/08/17 04:19:50;;;;;;;16.50;15.00;;;;;;;;;;110051;269;39706;-47
2023/08/17 04:22:29;;;;;;;16.20;14.70;;;;;;;;;;110113;269;42792;-47
2023/08/17 04:25:08;;;;;;;17.00;15.40;;;;;;;;;;109989;269;42083;-47
2023/08/17 04:27:48;;;;;;;16.70;15.00;;;;;;;;;;110044;269;38725;-47
2023/08/17 04:30:30;;;;;;;16.70;15.10;;;;;;;;;;110045;269;39580;-47
2023/08/17 04:33:08;;;;;;;17.00;15.50;;;;;;;;;;110057;269;42492;-47
2023/08/17 04:35:42;;;;;;;16.30;14.70;;;;;;;;;;110010;269;41957;-46
2023/08/17 04:38:23;;;;;;;16.60;15.10;;;;;;;;;;110068;269;39805;-47
2023/08/17 04:41:04;;;;;;;15.90;14.40;;;;;;;;;;110076;269;39632;-47
2023/08/17 04:43:49;;;;;;;15.90;14.40;;;;;;;;;;110083;269;42808;-47
2023/08/17 04:46:26;;;;;;;15.30;14.00;;;;;;;;;;110017;269;42630;-47
2023/08/17 04:49:03;;;;;;;15.20;13.70;;;;;;;;;;110073;269;38647;-48
2023/08/17 04:51:39;;;;;;;14.80;13.40;;;;;;;;;;110059;269;39686;-47
2023/08/17 04:54:16;;;;;;;15.00;13.50;;;;;;;;;;110046;269;43079;-47
2023/08/17 04:56:52;;;;;;;14.90;13.50;;;;;;;;;;110016;269;42233;-47
2023/08/17 04:59:30;;;;;;;14.90;13.50;;;;;;;;;;110037;269;38833;-47
2023/08/17 05:02:07;;;;;;;13.80;12.60;;;;;;;;;;110051;269;39852;-47
2023/08/17 05:04:48;;;;;;;14.50;13.20;;;;;;;;;;110059;269;42851;-47
2023/08/17 05:07:26;;;;;;;14.40;13.00;;;;;;;;;;110027;269;41814;-47
2023/08/17 05:10:04;;;;;;;14.10;12.80;;;;;;;;;;110084;269;38976;-47
2023/08/17 05:12:41;;;;;;;14.20;12.90;;;;;;;;;;110051;269;40848;-47
2023/08/17 05:15:18;;;;;;;13.40;12.10;;;;;;;;;;110078;269;43081;-47
2023/08/17 05:17:55;;;;;;;13.90;12.60;;;;;;;;;;109860;269;42262;-48
2023/08/17 05:20:33;;;;;;;13.10;11.80;;;;;;;;;;109841;269;176399;-48
2023/08/17 05:23:12;;;;;;;13.40;12.10;;;;;;;;;;110113;269;39771;-47
2023/08/17 05:25:48;;;;;;;12.30;11.10;;;;;;;;;;110080;269;42743;-47
2023/08/17 05:28:22;;;;;;;11.80;10.60;;;;;;;;;;110149;269;47809;-47
2023/08/17 05:30:56;;;;;;;12.40;11.20;;;;;;;;;;110070;269;38650;-48
2023/08/17 05:33:33;;;;;;;11.50;10.40;;;;;;;;;;110029;269;39894;-47
2023/08/17 05:36:13;;;;;;;11.90;10.70;;;;;;;;;;110098;269;42731;-48
2023/08/17 05:38:48;;;;;;;11.60;10.10;;;;;;;;;;110026;269;50074;-48
2023/08/17 05:41:22;;;;;;;11.40;10.20;;;;;;;;;;110013;269;38938;-48
2023/08/17 05:43:56;;;;;;;10.60;9.50;;;;;;;;;;110054;269;40590;-47
2023/08/17 05:46:37;;;;;;;11.60;10.10;;;;;;;;;;110054;269;42697;-48
2023/08/17 05:49:17;;;;;;;10.60;9.60;;;;;;;;;;110027;269;48970;-48
2023/08/17 05:51:59;;;;;;;10.50;9.40;;;;;;;;;;110049;269;39009;-48
2023/08/17 05:54:35;;;;;;;11.60;9.90;;;;;;;;;;110027;269;39433;-48
2023/08/17 05:57:12;;;;;;;10.70;9.60;;;;;;;;;;110011;269;42757;-48
2023/08/17 05:59:47;;;;;;;10.60;9.60;;;;;;;;;;110046;269;48121;-48
2023/08/17 06:02:22;;;;;;;10.10;9.10;;;;;;;;;;110096;269;38953;-47
2023/08/17 06:04:56;;;;;;;10.90;9.10;;;;;;;;;;110084;269;39635;-46
2023/08/17 06:07:37;;;;;;;11.20;9.90;;;;;;;;;;110067;269;42745;-48
2023/08/17 06:10:12;;;;;;;10.40;9.40;;;;;;;;;;110065;269;48375;-47
2023/08/17 06:12:52;;;;;;;10.90;9.40;;;;;;;;;;110093;269;38769;-48
2023/08/17 06:15:33;;;;;;;10.80;9.70;;;;;;;;;;110046;269;39729;-47
2023/08/17 06:18:08;;;;;;;10.70;9.60;;;;;;;;;;110014;269;42857;-48
2023/08/17 06:20:47;;;;;;;10.40;9.20;;;;;;;;;;110112;269;43279;-47
2023/08/17 06:23:23;;;;;;;11.50;9.30;;;;;;;;;;109938;269;191651;-45
2023/08/17 06:26:05;;;;;;;10.40;9.10;;;;;;;;;;110050;269;39267;-47
2023/08/17 06:28:44;;;;;;;10.40;8.80;;;;;;;;;;110023;269;42709;-47
2023/08/17 06:31:27;;;;;;;11.50;9.20;;;;;;;;;;110076;269;41972;-48
2023/08/17 06:34:07;;;;;;;11.30;9.50;;;;;;;;;;110052;269;38629;-47
2023/08/17 06:36:44;;;;;;;10.00;8.90;;;;;;;;;;109941;269;175389;-47
2023/08/17 06:39:22;;;;;;;10.60;9.50;;;;;;;;;;109795;269;325934;-48
2023/08/17 06:41:58;;;;;;;10.30;8.80;;;;;;;;;;110029;269;42054;-48
2023/08/17 06:44:35;;;;;;;11.30;9.40;;;;;;;;;;110052;269;38765;-48
2023/08/17 06:47:09;;;;;;;10.40;9.30;;;;;;;;;;110058;269;39548;-48
2023/08/17 06:49:45;;;;;;;11.20;9.80;;;;;;;;;;110043;269;42443;-47
2023/08/17 06:52:22;;;;;;;10.20;9.10;;;;;;;;;;110029;261;42180;-41
2023/08/17 06:54:55;;;;;;;10.50;9.30;;;;;;;;;;110097;269;38452;-39
2023/08/17 06:57:28;;;;;;;10.90;9.70;;;;;;;;;;110025;261;39785;-45
2023/08/17 07:00:06;;;;;;;9.80;8.60;;;;;;;;;;109951;269;42847;-47
2023/08/17 07:02:44;;;;;;;10.30;9.00;;;;;;;;;;110040;269;42049;-44
2023/08/17 07:05:30;;;;;;;11.00;9.00;;;;;;;;;;109970;261;38585;-45
2023/08/17 07:08:09;;;;;;;9.80;8.80;;;;;;;;;;109987;269;39573;-39
2023/08/17 07:10:45;;;;;;;11.00;9.60;;;;;;;;;;110116;261;42701;-46
2023/08/17 07:13:20;;;;;;;11.50;9.50;;;;;;;;;;110025;269;42228;-47
2023/08/17 07:15:58;;;;;;;10.50;9.40;;;;;;;;;;109957;269;39897;-42
2023/08/17 07:18:37;;;;;;;10.90;9.50;;;;;;;;;;109711;269;175354;-45
2023/08/17 07:21:10;;;;;;;10.30;9.30;;;;;;;;;;109865;269;174914;-47
2023/08/17 07:23:47;;;;;;;12.60;9.50;;;;;;;;;;110100;269;41741;-42
2023/08/17 07:26:21;;;;;;;11.10;9.50;;;;;;;;;;110100;269;38836;-45
2023/08/17 07:28:56;;;;;;;10.90;9.80;;;;;;;;;;110164;268;40257;-43
2023/08/17 07:31:29;;;;;;;12.70;9.90;;;;;;;;;;110178;269;43926;-48
2023/08/17 07:34:03;;;;;;;10.70;9.40;;;;;;;;;;110214;261;41850;-44
2023/08/17 07:36:36;;;;;;;10.00;9.00;;;;;;;;;;110145;268;38617;-41
2023/08/17 07:39:10;;;;;;;11.60;9.90;;;;;;;;;;110234;261;39385;-45
2023/08/17 07:41:43;;;;;;;10.50;9.50;;;;;;;;;;110162;268;42721;-47
2023/08/17 07:44:17;;;;;;;10.70;9.70;;;;;;;;;;110201;268;42117;-48
2023/08/17 07:46:50;;;;;;;11.00;9.80;;;;;;;;;;110177;269;38696;-46
2023/08/17 07:49:28;;;;;;;10.90;9.80;;;;;;;;;;110204;265;39308;-48
2023/08/17 07:52:24;;;;;;;10.70;9.50;;;;;;;;;;110174;269;48688;-45
2023/08/17 07:54:58;;;;;;;11.00;9.80;;;;;;;;;;110202;268;41729;-48
2023/08/17 07:57:31;;;;;;;10.80;9.70;;;;;;;;;;110209;268;39937;-48
2023/08/17 08:00:09;;;;;;;11.00;9.60;;;;;;;;;;110159;268;40878;-46
2023/08/17 08:02:47;;;;;;;10.50;9.50;;;;;;;;;;110238;268;48605;-45
2023/08/17 08:05:21;;;;;;;11.50;9.50;;;;;;;;;;110202;268;42008;-48
2023/08/17 08:07:55;;;;;;;10.40;9.30;;;;;;;;;;110117;268;38671;-48
2023/08/17 08:10:29;;;;;;;10.80;9.70;;;;;;;;;;110210;268;39507;-47
2023/08/17 08:13:02;;;;;;;10.60;9.60;;;;;;;;;;110190;268;42826;-48
2023/08/17 08:15:37;;;;;;;11.40;10.00;;;;;;;;;;110193;268;42271;-47
2023/08/17 08:18:13;;;;;;;11.30;9.70;;;;;;;;;;110235;268;38702;-48
2023/08/17 08:20:50;;;;;;;10.60;9.60;;;;;;;;;;110192;268;39727;-47
2023/08/17 08:23:26;;;;;;;10.70;9.60;;;;;;;;;;110146;265;42949;-48
2023/08/17 08:26:00;;;;;;;10.10;9.10;;;;;;;;;;110172;268;42045;-47
2023/08/17 08:28:36;;;;;;;11.30;10.10;;;;;;;;;;110108;269;175349;-48
2023/08/17 08:31:10;;;;;;;11.10;9.90;;;;;;;;;;110196;268;39501;-48
2023/08/17 08:33:44;;;;;;;11.40;9.90;;;;;;;;;;110199;268;42696;-48
2023/08/17 08:36:17;;;;;;;11.00;9.90;;;;;;;;;;110212;268;42949;-48
2023/08/17 08:38:52;;;;;;;11.50;10.40;;;;;;;;;;110246;268;38432;-48
2023/08/17 08:41:27;;;;;;;11.00;9.90;;;;;;;;;;110247;268;39353;-48
2023/08/17 08:44:03;;;;;;;10.50;9.40;;;;;;;;;;110169;268;42649;-48
2023/08/17 08:46:42;;;;;;;11.10;10.10;;;;;;;;;;110238;268;41792;-47
2023/08/17 08:49:21;;;;;;;11.20;10.10;;;;;;;;;;110206;268;38430;-48
2023/08/17 08:51:59;;;;;;;12.10;10.70;;;;;;;;;;110253;268;39577;-47
2023/08/17 08:54:37;;;;;;;12.30;10.50;;;;;;;;;;110168;268;42734;-47
2023/08/17 08:57:16;;;;;;;11.00;9.90;;;;;;;;;;110158;268;42233;-45
2023/08/17 08:59:51;;;;;;;10.90;9.80;;;;;;;;;;110205;268;38657;-47
2023/08/17 09:02:32;;;;;;;11.70;10.50;;;;;;;;;;110238;268;39594;-48
2023/08/17 09:05:11;;;;;;;11.70;10.50;;;;;;;;;;110164;268;42822;-48
2023/08/17 09:07:47;;;;;;;11.40;10.30;;;;;;;;;;110228;268;42226;-48
2023/08/17 09:10:21;;;;;;;10.80;9.80;;;;;;;;;;110261;268;38459;-47
2023/08/17 09:12:55;;;;;;;11.60;10.40;;;;;;;;;;110248;268;40840;-48
2023/08/17 09:15:33;;;;;;;11.70;10.50;;;;;;;;;;110222;268;48099;-48
2023/08/17 09:18:10;;;;;;;12.70;11.40;;;;;;;;;;110204;268;41859;-48
2023/08/17 09:20:48;;;;;;;11.80;10.70;;;;;;;;;;110148;268;38674;-47
2023/08/17 09:23:26;;;;;;;11.70;10.50;;;;;;;;;;110104;261;41923;-41
2023/08/17 09:26:09;;;;;;;11.10;10.10;;;;;;;;;;110074;261;50181;-39
2023/08/17 09:28:45;;;;;;;11.90;10.90;;;;;;;;;;110095;264;42214;-39
2023/08/17 09:31:22;;;;;;;11.90;10.80;;;;;;;;;;110156;261;38626;-39
2023/08/17 09:34:02;;;;;;;11.40;10.20;;;;;;;;;;109414;269;890574;-40
2023/08/17 09:36:43;;;;;;;11.40;10.20;;;;;;;;;;110080;269;42694;-39
2023/08/17 09:39:24;;;;;;;11.70;10.60;;;;;;;;;;110095;269;42047;-44
2023/08/17 09:42:01;;;;;;;11.00;10.00;;;;;;;;;;110057;269;38683;-37
2023/08/17 09:44:37;;;;;;;11.60;10.50;;;;;;;;;;110099;262;39378;-41
2023/08/17 09:47:12;;;;;;;11.60;10.50;;;;;;;;;;110218;261;42790;-40
2023/08/17 09:49:50;;;;;;;11.80;10.50;;;;;;;;;;110219;268;42596;-38
2023/08/17 09:52:25;;;;;;;11.30;10.20;;;;;;;;;;110209;268;38589;-37
2023/08/17 09:55:04;;;;;;;11.90;10.70;;;;;;;;;;110181;268;40709;-37
2023/08/17 09:57:42;;;;;;;11.70;10.60;;;;;;;;;;110123;265;44124;-44
2023/08/17 10:00:18;;;;;;;11.30;10.30;;;;;;;;;;110095;264;42067;-41
2023/08/17 10:02:53;;;;;;;11.90;10.80;;;;;;;;;;110215;268;38461;-39
2023/08/17 10:05:39;;;;;;;11.50;10.40;;;;;;;;;;110139;268;40629;-45
2023/08/17 10:08:14;;;;;;;11.50;10.40;;;;;;;;;;110108;268;42738;-43
2023/08/17 10:10:49;;;;;;;10.80;9.80;;;;;;;;;;110164;268;42323;-42
2023/08/17 10:13:37;;;;;;;11.50;10.40;;;;;;;;;;110222;268;38812;-42
2023/08/17 10:16:20;;;;;;;11.20;10.20;;;;;;;;;;110167;265;39750;-39
2023/08/17 10:19:03;;;;;;;11.40;10.30;;;;;;;;;;110179;268;42730;-35
2023/08/17 10:21:47;;;;;;;;;;;;;;;;;;110240;268;42228;-44
2023/08/17 10:24:25;;;;;;;10.80;9.70;;;;;;;;;;110215;268;38912;-44
2023/08/17 10:27:00;;;;;;;10.30;9.30;;;;;;;;;;109487;268;889211;-37
2023/08/17 10:29:35;;;;;;;10.90;9.80;;;;;;;;;;110195;268;43030;-37
2023/08/17 10:32:09;;;;;;;10.50;9.50;;;;;;;;;;110107;261;42285;-40
2023/08/17 10:34:52;;;;;;;10.00;8.90;;;;;;;;;;110171;269;38645;-39
2023/08/17 10:37:26;;;;;;;10.40;9.30;;;;;;;;;;110187;265;46129;-39
2023/08/17 10:39:59;;;;;;;9.90;9.00;;;;;;;;;;110220;261;42442;-39
2023/08/17 10:42:37;;;;;;;9.70;8.70;;;;;;;;;;110231;268;42006;-40
2023/08/17 10:45:31;;;;;;;10.10;9.10;;;;;;;;;;110139;268;38947;-39
2023/08/17 10:48:31;;;;;;;9.70;8.80;;;;;;;;;;110225;265;45791;-41
2023/08/17 10:51:13;;;;;;;8.70;7.80;;;;;;;;;;110177;269;42770;-39
2023/08/17 10:53:47;;;;;;;9.30;8.30;;;;;;;;;;110202;269;41923;-39
2023/08/17 10:56:31;;;;;;;8.70;7.90;;;;;;;;;;110142;268;38633;-38
2023/08/17 10:59:29;;;;;;;8.90;8.10;;;;;;;;;;110174;268;39603;-40
2023/08/17 11:02:03;;;;;;;8.80;7.90;;;;;;;;;;110183;268;43251;-39
2023/08/17 11:04:36;;;;;;;8.40;7.50;;;;;;;;;;110202;268;42267;-40
2023/08/17 11:07:17;;;;;;;8.70;7.80;;;;;;;;;;110150;268;38864;-41
2023/08/17 11:09:51;;;;;;;8.20;7.30;;;;;;;;;;110200;268;40947;-41
2023/08/17 11:12:32;;;;;;;8.10;7.30;;;;;;;;;;110219;261;42734;-41
2023/08/17 11:15:07;;;;;;;8.20;7.20;;;;;;;;;;110195;265;41984;-40
2023/08/17 11:17:40;;;;;;;8.20;7.20;;;;;;;;;;110191;268;38833;-39
2023/08/17 11:20:18;;;;;;;7.70;6.90;;;;;;;;;;110204;269;39861;-39
2023/08/17 11:22:52;;;;;;;7.70;6.90;;;;;;;;;;110221;268;42748;-41
2023/08/17 11:25:26;;;;;;;7.70;6.90;;;;;;;;;;110229;269;42599;-41
2023/08/17 11:28:09;;;;;;;7.80;7.00;;;;;;;;;;110173;267;38615;-40
2023/08/17 11:30:43;;;;;;;7.40;6.60;;;;;;;;;;110234;268;39590;-39
2023/08/17 11:33:19;;;;;;;7.40;6.60;;;;;;;;;;110143;269;42730;-40
2023/08/17 11:35:56;;;;;;;7.90;6.70;;;;;;;;;;110176;268;41969;-43
2023/08/17 11:38:37;;;;;;;7.30;6.50;;;;;;;;;;110186;265;38681;-42
2023/08/17 11:41:11;;;;;;;6.80;6.10;;;;;;;;;;110209;268;39695;-41
2023/08/17 11:43:51;;;;;;;7.10;6.10;;;;;;;;;;110239;268;42850;-42
2023/08/17 11:46:25;;;;;;;6.70;6.00;;;;;;;;;;110214;268;42148;-41
2023/08/17 11:49:04;;;;;;;7.20;6.40;;;;;;;;;;110143;268;39699;-39
2023/08/17 11:51:40;;;;;;;6.90;5.90;;;;;;;;;;110267;268;41054;-42
2023/08/17 11:54:15;;;;;;;6.80;5.50;;;;;;;;;;110144;268;43949;-40
2023/08/17 11:56:49;;;;;;;7.40;5.80;;;;;;;;;;110131;268;42111;-41
2023/08/17 11:59:23;;;;;;;6.40;5.30;;;;;;;;;;110104;268;44702;-39
2023/08/17 12:01:56;;;;;;;7.00;5.10;;;;;;;;;;110092;268;39272;-40
2023/08/17 12:04:34;;;;;;;7.30;5.00;;;;;;;;;;110105;268;42685;-38
2023/08/17 12:07:08;;;;;;;7.00;5.20;;;;;;;;;;110223;269;41966;-47
2023/08/17 12:09:42;;;;;;;5.90;4.80;;;;;;;;;;110050;268;174656;-36
2023/08/17 12:12:17;;;;;;;6.20;4.50;;;;;;;;;;110091;268;39344;-37
2023/08/17 12:14:52;;;;;;;5.70;4.40;;;;;;;;;;110128;265;42707;-37
2023/08/17 12:17:27;;;;;;;6.00;4.30;;;;;;;;;;110062;269;41913;-36
2023/08/17 12:20:03;;;;;;;6.00;4.40;;;;;;;;;;110003;269;45556;-38
2023/08/17 12:22:36;;;;;;;5.40;4.10;;;;;;;;;;109996;269;39675;-37
2023/08/17 12:25:12;;;;;;;5.60;4.20;;;;;;;;;;109327;269;892162;-37
2023/08/17 12:27:49;;;;;;;5.50;3.90;;;;;;;;;;110044;269;42228;-37
2023/08/17 12:30:36;;;;;;;6.50;4.30;;;;;;;;;;110095;269;44536;-39
2023/08/17 12:33:13;;;;;;;6.20;4.10;;;;;;;;;;109996;269;39542;-38
2023/08/17 12:35:50;;;;;;;6.00;3.90;;;;;;;;;;110090;265;42889;-38
2023/08/17 12:38:24;;;;;;;5.60;4.00;;;;;;;;;;110139;268;41716;-38
2023/08/17 12:41:03;;;;;;;5.40;3.80;;;;;;;;;;110191;268;38663;-36
2023/08/17 12:43:43;;;;;;;5.70;3.90;;;;;;;;;;110162;268;39646;-39
2023/08/17 12:46:20;;;;;;;5.00;3.80;;;;;;;;;;110207;261;43116;-37
2023/08/17 12:48:53;;;;;;;5.40;4.10;;;;;;;;;;110140;268;42106;-38
2023/08/17 12:51:28;;;;;;;6.60;4.20;;;;;;;;;;110162;268;39923;-40
2023/08/17 12:54:05;;;;;;;5.50;3.90;;;;;;;;;;110263;269;39692;-37
2023/08/17 12:56:38;;;;;;;4.90;3.80;;;;;;;;;;110222;268;42877;-38
2023/08/17 12:59:11;;;;;;;5.50;4.00;;;;;;;;;;110156;268;42507;-38
2023/08/17 13:01:45;;;;;;;5.90;4.10;;;;;;;;;;110206;268;39759;-37
2023/08/17 13:04:19;;;;;;;5.20;3.90;;;;;;;;;;110184;265;39522;-40
2023/08/17 13:06:53;;;;;;;5.50;3.80;;;;;;;;;;110165;268;42715;-39
2023/08/17 13:09:27;;;;;;;5.40;4.10;;;;;;;;;;110174;268;42207;-38
2023/08/17 13:12:04;;;;;;;6.50;4.20;;;;;;;;;;110180;268;38820;-42
2023/08/17 13:14:40;;;;;;;5.40;3.80;;;;;;;;;;110211;268;39985;-41
2023/08/17 13:17:17;;;;;;;5.80;3.90;;;;;;;;;;110194;268;43064;-38
2023/08/17 13:19:51;;;;;;;5.80;3.80;;;;;;;;;;110132;268;43947;-38
2023/08/17 13:22:25;;;;;;;5.70;3.80;;;;;;;;;;110184;261;38785;-43
2023/08/17 13:24:59;;;;;;;5.10;3.90;;;;;;;;;;110120;261;40821;-38
2023/08/17 13:27:33;;;;;;;5.50;3.70;;;;;;;;;;110103;269;42713;-38
2023/08/17 13:30:09;;;;;;;5.40;3.90;;;;;;;;;;110094;269;41721;-42
2023/08/17 13:32:43;;;;;;;5.70;4.00;;;;;;;;;;110133;269;38399;-40
2023/08/17 13:35:19;;;;;;;5.40;3.80;;;;;;;;;;110218;267;39873;-43
2023/08/17 13:37:58;;;;;;;5.60;4.00;;;;;;;;;;110198;268;42714;-42
2023/08/17 13:40:31;;;;;;;5.70;4.10;;;;;;;;;;110143;268;42166;-41
2023/08/17 13:43:11;;;;;;;5.90;4.20;;;;;;;;;;110213;268;38752;-40
2023/08/17 13:45:45;;;;;;;5.70;4.30;;;;;;;;;;110192;269;39611;-37
2023/08/17 13:48:19;;;;;;;5.90;3.90;;;;;;;;;;110215;268;42537;-37
2023/08/17 13:50:53;;;;;;;5.70;4.30;;;;;;;;;;110133;269;41994;-36
2023/08/17 13:53:27;;;;;;;6.40;4.40;;;;;;;;;;110126;268;38467;-38
2023/08/17 13:56:03;;;;;;;6.00;4.40;;;;;;;;;;110144;264;39311;-37
2023/08/17 13:58:39;;;;;;;6.00;4.20;;;;;;;;;;110186;264;42765;-37
2023/08/17 14:01:14;;;;;;;5.90;4.30;;;;;;;;;;110128;268;41714;-37
2023/08/17 14:03:54;;;;;;;6.00;4.50;;;;;;;;;;110116;264;38464;-37
2023/08/17 14:06:28;;;;;;;6.10;4.40;;;;;;;;;;110092;269;40854;-37
2023/08/17 14:09:06;;;;;;;5.80;4.50;;;;;;;;;;110112;269;42718;-38
2023/08/17 14:11:42;;;;;;;6.50;4.30;;;;;;;;;;110080;269;41935;-37
2023/08/17 14:14:18;;;;;;;5.50;4.60;;;;;;;;;;110095;261;38751;-39
2023/08/17 14:16:53;;;;;;;6.20;4.60;;;;;;;;;;110093;269;39477;-38
2023/08/17 14:19:33;;;;;;;5.10;4.20;;;;;;;;;;110135;269;43061;-38
2023/08/17 14:22:09;;;;;;;5.30;4.30;;;;;;;;;;110038;261;42267;-37
2023/08/17 14:24:47;;;;;;;5.50;4.30;;;;;;;;;;110115;269;38784;-37
2023/08/17 14:27:21;;;;;;;6.20;4.30;;;;;;;;;;110127;269;39742;-37
2023/08/17 14:29:55;;;;;;;5.80;4.20;;;;;;;;;;110078;269;42756;-38
2023/08/17 14:32:30;;;;;;;5.90;4.40;;;;;;;;;;110063;261;42066;-38
2023/08/17 14:35:10;;;;;;;6.20;4.40;;;;;;;;;;110158;269;39944;-38
2023/08/17 14:37:48;;;;;;;6.60;4.70;;;;;;;;;;110166;268;40860;-37
2023/08/17 14:40:22;;;;;;;6.40;4.60;;;;;;;;;;109959;268;318528;-37
2023/08/17 14:42:57;;;;;;;6.50;4.70;;;;;;;;;;110156;265;42097;-37
2023/08/17 14:45:33;;;;;;;5.50;4.40;;;;;;;;;;110155;268;39846;-37
2023/08/17 14:48:08;;;;;;;6.30;4.80;;;;;;;;;;110176;268;39735;-37
2023/08/17 14:50:43;;;;;;;6.00;4.80;;;;;;;;;;110190;268;44101;-37
2023/08/17 14:53:22;;;;;;;5.70;4.70;;;;;;;;;;110153;268;47600;-38
2023/08/17 14:55:56;;;;;;;5.60;4.70;;;;;;;;;;110166;269;38808;-37
2023/08/17 14:58:32;;;;;;;6.60;4.70;;;;;;;;;;110190;268;39591;-37
2023/08/17 15:01:09;;;;;;;5.80;4.80;;;;;;;;;;110189;268;42391;-37
2023/08/17 15:03:46;;;;;;;5.40;4.70;;;;;;;;;;110181;268;49053;-38
2023/08/17 15:06:26;;;;;;;6.30;4.70;;;;;;;;;;110211;268;40000;-37
2023/08/17 15:09:10;;;;;;;5.80;4.50;;;;;;;;;;110181;268;39444;-37
2023/08/17 15:11:44;;;;;;;6.20;4.70;;;;;;;;;;110151;268;43920;-38
2023/08/17 15:14:18;;;;;;;6.20;4.70;;;;;;;;;;110151;268;48492;-38
2023/08/17 15:16:54;;;;;;;5.80;4.70;;;;;;;;;;110094;269;38723;-41
2023/08/17 15:19:28;;;;;;;5.40;4.30;;;;;;;;;;110083;269;39446;-37
2023/08/17 15:22:12;;;;;;;7.00;4.50;;;;;;;;;;110007;269;42734;-35
2023/08/17 15:24:48;;;;;;;6.70;4.60;;;;;;;;;;110079;269;41744;-36